sensor_id;sensor_type;location;lat;lon;timestamp;P1;durP1;ratioP1;P2;durP2;ratioP2
52974;SDS011;38839;45.186;5.720;2022-09-01T00:01:49;4.45;;;2.30;;
52974;SDS011;38839;45.186;5.720;2022-09-01T00:04:17;2.92;;;2.10;;
52974;SDS011;38839;45.186;5.720;2022-09-01T00:06:44;2.45;;;2.10;;
52974;SDS011;38839;45.186;5.720;2022-09-01T00:09:13;3.03;;;2.25;;
52974;SDS011;38839;45.186;5.720;2022-09-01T00:11:42;2.58;;;2.38;;
52974;SDS011;38839;45.186;5.720;2022-09-01T00:14:09;2.85;;;2.17;;
52974;SDS011;38839;45.186;5.720;2022-09-01T00:16:35;3.35;;;2.28;;
52974;SDS011;38839;45.186;5.720;2022-09-01T00:19:01;6.47;;;2.50;;
52974;SDS011;38839;45.186;5.720;2022-09-01T00:21:29;3.05;;;2.33;;
52974;SDS011;38839;45.186;5.720;2022-09-01T00:23:56;5.18;;;2.45;;
52974;SDS011;38839;45.186;5.720;2022-09-01T00:26:23;2.63;;;2.10;;
52974;SDS011;38839;45.186;5.720;2022-09-01T00:28:48;4.10;;;2.42;;
52974;SDS011;38839;45.186;5.720;2022-09-01T00:31:15;3.28;;;2.10;;
52974;SDS011;38839;45.186;5.720;2022-09-01T00:33:41;2.40;;;2.17;;
52974;SDS011;38839;45.186;5.720;2022-09-01T00:36:07;3.05;;;2.22;;
52974;SDS011;38839;45.186;5.720;2022-09-01T00:38:33;3.10;;;2.08;;
52974;SDS011;38839;45.186;5.720;2022-09-01T00:40:58;2.35;;;2.13;;
52974;SDS011;38839;45.186;5.720;2022-09-01T00:43:36;3.45;;;2.35;;
52974;SDS011;38839;45.186;5.720;2022-09-01T00:46:10;4.82;;;1.95;;
52974;SDS011;38839;45.186;5.720;2022-09-01T00:48:41;2.13;;;1.85;;
52974;SDS011;38839;45.186;5.720;2022-09-01T00:51:07;3.53;;;2.45;;
52974;SDS011;38839;45.186;5.720;2022-09-01T00:53:34;2.85;;;1.85;;
52974;SDS011;38839;45.186;5.720;2022-09-01T00:56:02;2.30;;;2.10;;
52974;SDS011;38839;45.186;5.720;2022-09-01T00:58:29;2.40;;;2.20;;
52974;SDS011;38839;45.186;5.720;2022-09-01T01:00:55;3.75;;;1.77;;
52974;SDS011;38839;45.186;5.720;2022-09-01T01:03:20;3.42;;;2.33;;
52974;SDS011;38839;45.186;5.720;2022-09-01T01:05:50;2.85;;;1.95;;
52974;SDS011;38839;45.186;5.720;2022-09-01T01:08:52;4.60;;;2.20;;
52974;SDS011;38839;45.186;5.720;2022-09-01T01:11:20;3.38;;;2.15;;
52974;SDS011;38839;45.186;5.720;2022-09-01T01:13:47;2.50;;;2.08;;
52974;SDS011;38839;45.186;5.720;2022-09-01T01:16:15;2.25;;;2.05;;
52974;SDS011;38839;45.186;5.720;2022-09-01T01:18:41;2.97;;;1.83;;
52974;SDS011;38839;45.186;5.720;2022-09-01T01:21:09;2.78;;;2.25;;
52974;SDS011;38839;45.186;5.720;2022-09-01T01:26:48;4.25;;;2.28;;
52974;SDS011;38839;45.186;5.720;2022-09-01T01:29:14;2.22;;;2.03;;
52974;SDS011;38839;45.186;5.720;2022-09-01T01:31:41;6.53;;;2.60;;
52974;SDS011;38839;45.186;5.720;2022-09-01T01:34:07;3.78;;;2.38;;
52974;SDS011;38839;45.186;5.720;2022-09-01T01:36:34;4.05;;;2.55;;
52974;SDS011;38839;45.186;5.720;2022-09-01T01:39:06;7.28;;;2.50;;
52974;SDS011;38839;45.186;5.720;2022-09-01T01:41:35;4.68;;;2.40;;
52974;SDS011;38839;45.186;5.720;2022-09-01T01:44:05;4.53;;;2.83;;
52974;SDS011;38839;45.186;5.720;2022-09-01T01:46:31;3.35;;;2.72;;
52974;SDS011;38839;45.186;5.720;2022-09-01T01:48:58;2.95;;;2.60;;
52974;SDS011;38839;45.186;5.720;2022-09-01T01:51:26;3.25;;;2.33;;
52974;SDS011;38839;45.186;5.720;2022-09-01T01:53:53;5.50;;;2.40;;
52974;SDS011;38839;45.186;5.720;2022-09-01T01:56:23;3.92;;;2.30;;
52974;SDS011;38839;45.186;5.720;2022-09-01T01:58:50;2.60;;;2.40;;
52974;SDS011;38839;45.186;5.720;2022-09-01T02:01:21;7.38;;;2.55;;
52974;SDS011;38839;45.186;5.720;2022-09-01T02:03:49;4.65;;;2.45;;
52974;SDS011;38839;45.186;5.720;2022-09-01T02:06:20;2.60;;;2.40;;
52974;SDS011;38839;45.186;5.720;2022-09-01T02:11:16;3.20;;;2.40;;
52974;SDS011;38839;45.186;5.720;2022-09-01T02:13:42;2.47;;;2.28;;
52974;SDS011;38839;45.186;5.720;2022-09-01T02:16:08;4.82;;;2.55;;
52974;SDS011;38839;45.186;5.720;2022-09-01T02:18:38;5.50;;;2.43;;
52974;SDS011;38839;45.186;5.720;2022-09-01T02:21:07;3.30;;;2.75;;
52974;SDS011;38839;45.186;5.720;2022-09-01T02:23:35;2.75;;;2.40;;
52974;SDS011;38839;45.186;5.720;2022-09-01T02:26:02;3.97;;;2.50;;
52974;SDS011;38839;45.186;5.720;2022-09-01T02:28:31;4.05;;;2.63;;
52974;SDS011;38839;45.186;5.720;2022-09-01T02:30:59;7.55;;;2.63;;
52974;SDS011;38839;45.186;5.720;2022-09-01T02:33:26;3.58;;;2.28;;
52974;SDS011;38839;45.186;5.720;2022-09-01T02:36:02;2.50;;;2.30;;
52974;SDS011;38839;45.186;5.720;2022-09-01T02:38:33;3.42;;;2.55;;
52974;SDS011;38839;45.186;5.720;2022-09-01T02:41:00;6.82;;;2.60;;
52974;SDS011;38839;45.186;5.720;2022-09-01T02:43:28;6.53;;;2.65;;
52974;SDS011;38839;45.186;5.720;2022-09-01T02:45:56;9.10;;;2.93;;
52974;SDS011;38839;45.186;5.720;2022-09-01T02:48:28;6.15;;;3.03;;
52974;SDS011;38839;45.186;5.720;2022-09-01T02:51:00;3.15;;;2.28;;
52974;SDS011;38839;45.186;5.720;2022-09-01T02:53:27;5.18;;;2.88;;
52974;SDS011;38839;45.186;5.720;2022-09-01T02:55:54;2.70;;;2.50;;
52974;SDS011;38839;45.186;5.720;2022-09-01T02:58:23;6.70;;;3.08;;
52974;SDS011;38839;45.186;5.720;2022-09-01T03:00:53;4.32;;;2.70;;
52974;SDS011;38839;45.186;5.720;2022-09-01T03:03:20;2.53;;;2.33;;
52974;SDS011;38839;45.186;5.720;2022-09-01T03:05:46;3.95;;;2.58;;
52974;SDS011;38839;45.186;5.720;2022-09-01T03:08:13;7.63;;;3.03;;
52974;SDS011;38839;45.186;5.720;2022-09-01T03:10:40;2.92;;;2.72;;
52974;SDS011;38839;45.186;5.720;2022-09-01T03:13:09;2.88;;;2.60;;
52974;SDS011;38839;45.186;5.720;2022-09-01T03:15:37;4.93;;;2.80;;
52974;SDS011;38839;45.186;5.720;2022-09-01T03:18:04;5.63;;;2.60;;
52974;SDS011;38839;45.186;5.720;2022-09-01T03:20:32;5.40;;;2.83;;
52974;SDS011;38839;45.186;5.720;2022-09-01T03:23:02;4.57;;;2.50;;
52974;SDS011;38839;45.186;5.720;2022-09-01T03:25:32;4.28;;;2.60;;
52974;SDS011;38839;45.186;5.720;2022-09-01T03:27:59;4.72;;;2.55;;
52974;SDS011;38839;45.186;5.720;2022-09-01T03:30:31;6.78;;;2.92;;
52974;SDS011;38839;45.186;5.720;2022-09-01T03:32:58;6.10;;;2.92;;
52974;SDS011;38839;45.186;5.720;2022-09-01T03:35:25;6.50;;;2.85;;
52974;SDS011;38839;45.186;5.720;2022-09-01T03:37:52;5.88;;;2.90;;
52974;SDS011;38839;45.186;5.720;2022-09-01T03:40:19;4.53;;;2.60;;
52974;SDS011;38839;45.186;5.720;2022-09-01T03:42:45;7.28;;;2.80;;
52974;SDS011;38839;45.186;5.720;2022-09-01T03:45:11;4.43;;;2.92;;
52974;SDS011;38839;45.186;5.720;2022-09-01T03:47:39;4.15;;;3.10;;
52974;SDS011;38839;45.186;5.720;2022-09-01T03:50:06;5.65;;;2.75;;
52974;SDS011;38839;45.186;5.720;2022-09-01T03:52:56;4.20;;;3.00;;
52974;SDS011;38839;45.186;5.720;2022-09-01T03:55:26;3.90;;;3.05;;
52974;SDS011;38839;45.186;5.720;2022-09-01T04:00:20;3.95;;;2.80;;
52974;SDS011;38839;45.186;5.720;2022-09-01T04:02:51;4.47;;;3.30;;
52974;SDS011;38839;45.186;5.720;2022-09-01T04:05:21;4.47;;;2.80;;
52974;SDS011;38839;45.186;5.720;2022-09-01T04:07:52;3.47;;;2.65;;
52974;SDS011;38839;45.186;5.720;2022-09-01T04:10:18;6.10;;;2.80;;
52974;SDS011;38839;45.186;5.720;2022-09-01T04:12:46;5.55;;;3.00;;
52974;SDS011;38839;45.186;5.720;2022-09-01T04:15:12;6.60;;;3.38;;
52974;SDS011;38839;45.186;5.720;2022-09-01T04:17:39;4.45;;;2.90;;
52974;SDS011;38839;45.186;5.720;2022-09-01T04:20:23;4.45;;;2.92;;
52974;SDS011;38839;45.186;5.720;2022-09-01T04:22:49;4.18;;;2.78;;
52974;SDS011;38839;45.186;5.720;2022-09-01T04:25:16;3.00;;;2.45;;
52974;SDS011;38839;45.186;5.720;2022-09-01T04:27:47;4.88;;;3.17;;
52974;SDS011;38839;45.186;5.720;2022-09-01T04:30:17;7.32;;;3.33;;
52974;SDS011;38839;45.186;5.720;2022-09-01T04:32:43;3.92;;;2.88;;
52974;SDS011;38839;45.186;5.720;2022-09-01T04:35:10;6.13;;;2.97;;
52974;SDS011;38839;45.186;5.720;2022-09-01T04:37:41;9.23;;;2.67;;
52974;SDS011;38839;45.186;5.720;2022-09-01T04:40:07;7.70;;;3.22;;
52974;SDS011;38839;45.186;5.720;2022-09-01T04:42:34;2.90;;;2.60;;
52974;SDS011;38839;45.186;5.720;2022-09-01T04:45:00;4.20;;;2.88;;
52974;SDS011;38839;45.186;5.720;2022-09-01T04:47:27;4.40;;;2.58;;
52974;SDS011;38839;45.186;5.720;2022-09-01T04:49:55;3.13;;;2.60;;
52974;SDS011;38839;45.186;5.720;2022-09-01T04:52:24;3.75;;;2.95;;
52974;SDS011;38839;45.186;5.720;2022-09-01T04:54:50;5.18;;;2.78;;
52974;SDS011;38839;45.186;5.720;2022-09-01T04:57:16;8.45;;;3.15;;
52974;SDS011;38839;45.186;5.720;2022-09-01T04:59:41;6.88;;;2.75;;
52974;SDS011;38839;45.186;5.720;2022-09-01T05:02:07;4.88;;;2.50;;
52974;SDS011;38839;45.186;5.720;2022-09-01T05:04:33;5.05;;;2.70;;
52974;SDS011;38839;45.186;5.720;2022-09-01T05:06:59;5.03;;;3.00;;
52974;SDS011;38839;45.186;5.720;2022-09-01T05:09:27;4.03;;;2.72;;
52974;SDS011;38839;45.186;5.720;2022-09-01T05:11:53;6.18;;;2.67;;
52974;SDS011;38839;45.186;5.720;2022-09-01T05:14:20;3.78;;;2.38;;
52974;SDS011;38839;45.186;5.720;2022-09-01T05:16:47;3.35;;;2.63;;
52974;SDS011;38839;45.186;5.720;2022-09-01T05:19:13;4.55;;;2.92;;
52974;SDS011;38839;45.186;5.720;2022-09-01T05:21:40;4.35;;;2.80;;
52974;SDS011;38839;45.186;5.720;2022-09-01T05:24:09;5.55;;;2.83;;
52974;SDS011;38839;45.186;5.720;2022-09-01T05:26:38;3.70;;;2.70;;
52974;SDS011;38839;45.186;5.720;2022-09-01T05:29:04;4.00;;;2.83;;
52974;SDS011;38839;45.186;5.720;2022-09-01T05:31:37;4.70;;;3.10;;
52974;SDS011;38839;45.186;5.720;2022-09-01T05:34:05;5.90;;;3.10;;
52974;SDS011;38839;45.186;5.720;2022-09-01T05:36:33;8.43;;;3.20;;
52974;SDS011;38839;45.186;5.720;2022-09-01T05:39:00;7.93;;;3.13;;
52974;SDS011;38839;45.186;5.720;2022-09-01T05:41:26;5.88;;;3.05;;
52974;SDS011;38839;45.186;5.720;2022-09-01T05:43:53;4.22;;;3.03;;
52974;SDS011;38839;45.186;5.720;2022-09-01T05:46:20;3.85;;;2.78;;
52974;SDS011;38839;45.186;5.720;2022-09-01T05:48:48;5.05;;;2.80;;
52974;SDS011;38839;45.186;5.720;2022-09-01T05:51:16;5.05;;;2.60;;
52974;SDS011;38839;45.186;5.720;2022-09-01T05:53:46;4.20;;;2.70;;
52974;SDS011;38839;45.186;5.720;2022-09-01T05:56:15;5.40;;;2.88;;
52974;SDS011;38839;45.186;5.720;2022-09-01T05:58:43;6.13;;;2.90;;
52974;SDS011;38839;45.186;5.720;2022-09-01T06:01:14;4.22;;;2.47;;
52974;SDS011;38839;45.186;5.720;2022-09-01T06:03:49;5.07;;;2.78;;
52974;SDS011;38839;45.186;5.720;2022-09-01T06:06:18;4.57;;;2.58;;
52974;SDS011;38839;45.186;5.720;2022-09-01T06:08:46;4.38;;;2.45;;
52974;SDS011;38839;45.186;5.720;2022-09-01T06:11:13;3.78;;;2.70;;
52974;SDS011;38839;45.186;5.720;2022-09-01T06:13:42;4.07;;;2.90;;
52974;SDS011;38839;45.186;5.720;2022-09-01T06:16:08;3.15;;;2.85;;
52974;SDS011;38839;45.186;5.720;2022-09-01T06:18:36;4.75;;;3.28;;
52974;SDS011;38839;45.186;5.720;2022-09-01T06:21:04;5.63;;;3.67;;
52974;SDS011;38839;45.186;5.720;2022-09-01T06:23:33;4.97;;;3.33;;
52974;SDS011;38839;45.186;5.720;2022-09-01T06:26:00;6.75;;;3.47;;
52974;SDS011;38839;45.186;5.720;2022-09-01T06:28:27;8.48;;;3.10;;
52974;SDS011;38839;45.186;5.720;2022-09-01T06:30:53;6.22;;;3.00;;
52974;SDS011;38839;45.186;5.720;2022-09-01T06:33:21;5.93;;;3.25;;
52974;SDS011;38839;45.186;5.720;2022-09-01T06:35:49;4.55;;;3.03;;
52974;SDS011;38839;45.186;5.720;2022-09-01T06:38:16;3.97;;;2.67;;
52974;SDS011;38839;45.186;5.720;2022-09-01T06:40:43;4.05;;;2.25;;
52974;SDS011;38839;45.186;5.720;2022-09-01T06:43:09;4.82;;;2.60;;
52974;SDS011;38839;45.186;5.720;2022-09-01T06:45:39;4.13;;;2.63;;
52974;SDS011;38839;45.186;5.720;2022-09-01T06:48:06;4.65;;;2.78;;
52974;SDS011;38839;45.186;5.720;2022-09-01T06:50:31;6.25;;;2.78;;
52974;SDS011;38839;45.186;5.720;2022-09-01T06:52:57;3.08;;;2.45;;
52974;SDS011;38839;45.186;5.720;2022-09-01T06:55:34;2.70;;;2.50;;
52974;SDS011;38839;45.186;5.720;2022-09-01T06:58:04;3.75;;;2.42;;
52974;SDS011;38839;45.186;5.720;2022-09-01T07:00:32;2.75;;;2.35;;
52974;SDS011;38839;45.186;5.720;2022-09-01T07:03:03;3.25;;;2.55;;
52974;SDS011;38839;45.186;5.720;2022-09-01T07:05:32;2.80;;;2.50;;
52974;SDS011;38839;45.186;5.720;2022-09-01T07:07:58;5.10;;;2.70;;
52974;SDS011;38839;45.186;5.720;2022-09-01T07:10:24;3.40;;;2.20;;
52974;SDS011;38839;45.186;5.720;2022-09-01T07:12:52;4.43;;;2.83;;
52974;SDS011;38839;45.186;5.720;2022-09-01T07:15:20;4.15;;;2.80;;
52974;SDS011;38839;45.186;5.720;2022-09-01T07:17:50;3.58;;;2.42;;
52974;SDS011;38839;45.186;5.720;2022-09-01T07:20:18;4.07;;;2.25;;
52974;SDS011;38839;45.186;5.720;2022-09-01T07:22:45;3.05;;;2.33;;
52974;SDS011;38839;45.186;5.720;2022-09-01T07:25:15;3.03;;;2.83;;
52974;SDS011;38839;45.186;5.720;2022-09-01T07:27:41;3.95;;;2.28;;
52974;SDS011;38839;45.186;5.720;2022-09-01T07:30:19;2.70;;;2.50;;
52974;SDS011;38839;45.186;5.720;2022-09-01T07:32:47;3.63;;;2.35;;
52974;SDS011;38839;45.186;5.720;2022-09-01T07:35:16;3.72;;;2.30;;
52974;SDS011;38839;45.186;5.720;2022-09-01T07:37:43;3.20;;;1.98;;
52974;SDS011;38839;45.186;5.720;2022-09-01T07:40:11;5.53;;;2.35;;
52974;SDS011;38839;45.186;5.720;2022-09-01T07:42:42;4.05;;;2.38;;
52974;SDS011;38839;45.186;5.720;2022-09-01T07:45:08;4.72;;;2.53;;
52974;SDS011;38839;45.186;5.720;2022-09-01T07:47:35;4.78;;;2.40;;
52974;SDS011;38839;45.186;5.720;2022-09-01T07:50:04;3.00;;;2.60;;
52974;SDS011;38839;45.186;5.720;2022-09-01T07:52:35;3.10;;;2.80;;
52974;SDS011;38839;45.186;5.720;2022-09-01T07:55:13;2.83;;;2.50;;
52974;SDS011;38839;45.186;5.720;2022-09-01T07:57:41;5.15;;;2.80;;
52974;SDS011;38839;45.186;5.720;2022-09-01T08:00:10;3.38;;;2.60;;
52974;SDS011;38839;45.186;5.720;2022-09-01T08:02:37;4.05;;;2.83;;
52974;SDS011;38839;45.186;5.720;2022-09-01T08:05:10;2.95;;;2.60;;
52974;SDS011;38839;45.186;5.720;2022-09-01T08:07:37;2.55;;;2.35;;
52974;SDS011;38839;45.186;5.720;2022-09-01T08:10:04;2.35;;;2.15;;
52974;SDS011;38839;45.186;5.720;2022-09-01T08:12:30;3.55;;;2.30;;
52974;SDS011;38839;45.186;5.720;2022-09-01T08:14:56;2.47;;;2.28;;
52974;SDS011;38839;45.186;5.720;2022-09-01T08:17:22;2.45;;;2.25;;
52974;SDS011;38839;45.186;5.720;2022-09-01T08:19:47;3.17;;;2.60;;
52974;SDS011;38839;45.186;5.720;2022-09-01T08:22:13;4.60;;;2.40;;
52974;SDS011;38839;45.186;5.720;2022-09-01T08:24:39;4.93;;;2.30;;
52974;SDS011;38839;45.186;5.720;2022-09-01T08:27:05;4.13;;;2.30;;
52974;SDS011;38839;45.186;5.720;2022-09-01T08:29:30;2.70;;;2.20;;
52974;SDS011;38839;45.186;5.720;2022-09-01T08:31:56;3.40;;;2.50;;
52974;SDS011;38839;45.186;5.720;2022-09-01T08:34:23;5.35;;;2.85;;
52974;SDS011;38839;45.186;5.720;2022-09-01T08:36:49;3.67;;;2.25;;
52974;SDS011;38839;45.186;5.720;2022-09-01T08:39:14;4.38;;;2.30;;
52974;SDS011;38839;45.186;5.720;2022-09-01T08:41:41;2.42;;;2.22;;
52974;SDS011;38839;45.186;5.720;2022-09-01T08:44:12;3.30;;;2.22;;
52974;SDS011;38839;45.186;5.720;2022-09-01T08:46:45;3.33;;;2.40;;
52974;SDS011;38839;45.186;5.720;2022-09-01T08:49:17;2.40;;;2.20;;
52974;SDS011;38839;45.186;5.720;2022-09-01T08:51:47;2.42;;;2.17;;
52974;SDS011;38839;45.186;5.720;2022-09-01T08:57:30;3.20;;;2.40;;
52974;SDS011;38839;45.186;5.720;2022-09-01T08:59:58;4.90;;;2.55;;
52974;SDS011;38839;45.186;5.720;2022-09-01T09:02:33;3.92;;;3.13;;
52974;SDS011;38839;45.186;5.720;2022-09-01T09:13:20;3.75;;;3.13;;
52974;SDS011;38839;45.186;5.720;2022-09-01T09:18:48;2.95;;;2.13;;
52974;SDS011;38839;45.186;5.720;2022-09-01T09:23:46;4.57;;;2.95;;
52974;SDS011;38839;45.186;5.720;2022-09-01T09:26:16;2.25;;;2.03;;
52974;SDS011;38839;45.186;5.720;2022-09-01T09:28:45;3.03;;;2.45;;
52974;SDS011;38839;45.186;5.720;2022-09-01T09:34:54;3.50;;;2.65;;
52974;SDS011;38839;45.186;5.720;2022-09-01T09:40:07;3.33;;;2.35;;
52974;SDS011;38839;45.186;5.720;2022-09-01T09:42:36;6.72;;;2.70;;
52974;SDS011;38839;45.186;5.720;2022-09-01T09:45:04;3.00;;;2.70;;
52974;SDS011;38839;45.186;5.720;2022-09-01T09:48:09;5.90;;;2.45;;
52974;SDS011;38839;45.186;5.720;2022-09-01T09:50:50;3.33;;;2.63;;
52974;SDS011;38839;45.186;5.720;2022-09-01T09:53:26;3.75;;;2.83;;
52974;SDS011;38839;45.186;5.720;2022-09-01T09:58:19;6.43;;;2.92;;
52974;SDS011;38839;45.186;5.720;2022-09-01T10:01:02;6.20;;;3.20;;
52974;SDS011;38839;45.186;5.720;2022-09-01T10:03:35;4.70;;;2.90;;
52974;SDS011;38839;45.186;5.720;2022-09-01T10:06:34;2.42;;;2.22;;
52974;SDS011;38839;45.186;5.720;2022-09-01T10:09:32;3.67;;;2.60;;
52974;SDS011;38839;45.186;5.720;2022-09-01T10:12:00;3.60;;;2.60;;
52974;SDS011;38839;45.186;5.720;2022-09-01T10:14:28;3.78;;;2.38;;
52974;SDS011;38839;45.186;5.720;2022-09-01T10:16:59;5.78;;;2.33;;
52974;SDS011;38839;45.186;5.720;2022-09-01T10:19:28;6.05;;;3.50;;
52974;SDS011;38839;45.186;5.720;2022-09-01T10:21:57;6.97;;;2.85;;
52974;SDS011;38839;45.186;5.720;2022-09-01T10:26:54;4.45;;;2.63;;
52974;SDS011;38839;45.186;5.720;2022-09-01T10:31:57;3.22;;;2.70;;
52974;SDS011;38839;45.186;5.720;2022-09-01T10:34:24;3.90;;;2.40;;
52974;SDS011;38839;45.186;5.720;2022-09-01T10:36:56;3.25;;;2.55;;
52974;SDS011;38839;45.186;5.720;2022-09-01T10:39:22;4.10;;;2.78;;
52974;SDS011;38839;45.186;5.720;2022-09-01T10:41:49;2.88;;;2.30;;
52974;SDS011;38839;45.186;5.720;2022-09-01T10:55:06;3.10;;;1.80;;
52974;SDS011;38839;45.186;5.720;2022-09-01T11:06:10;6.38;;;2.90;;
52974;SDS011;38839;45.186;5.720;2022-09-01T11:13:53;3.20;;;2.13;;
52974;SDS011;38839;45.186;5.720;2022-09-01T11:35:41;3.08;;;2.13;;
52974;SDS011;38839;45.186;5.720;2022-09-01T11:38:09;4.30;;;2.42;;
52974;SDS011;38839;45.186;5.720;2022-09-01T11:40:37;2.27;;;2.03;;
52974;SDS011;38839;45.186;5.720;2022-09-01T11:43:07;2.45;;;2.00;;
52974;SDS011;38839;45.186;5.720;2022-09-01T11:45:48;3.00;;;2.08;;
52974;SDS011;38839;45.186;5.720;2022-09-01T11:48:33;2.92;;;2.10;;
52974;SDS011;38839;45.186;5.720;2022-09-01T11:51:00;2.53;;;1.70;;
52974;SDS011;38839;45.186;5.720;2022-09-01T11:53:28;2.50;;;2.30;;
52974;SDS011;38839;45.186;5.720;2022-09-01T11:55:54;2.70;;;2.30;;
52974;SDS011;38839;45.186;5.720;2022-09-01T11:58:34;3.15;;;2.53;;
52974;SDS011;38839;45.186;5.720;2022-09-01T12:03:47;2.78;;;2.13;;
52974;SDS011;38839;45.186;5.720;2022-09-01T12:06:22;2.53;;;2.33;;
52974;SDS011;38839;45.186;5.720;2022-09-01T12:08:53;2.22;;;2.03;;
52974;SDS011;38839;45.186;5.720;2022-09-01T12:11:31;2.05;;;1.95;;
52974;SDS011;38839;45.186;5.720;2022-09-01T12:14:03;2.88;;;2.17;;
52974;SDS011;38839;45.186;5.720;2022-09-01T12:16:31;3.63;;;2.40;;
52974;SDS011;38839;45.186;5.720;2022-09-01T12:18:59;2.30;;;2.17;;
52974;SDS011;38839;45.186;5.720;2022-09-01T12:21:27;3.17;;;2.20;;
52974;SDS011;38839;45.186;5.720;2022-09-01T12:23:53;2.47;;;2.00;;
52974;SDS011;38839;45.186;5.720;2022-09-01T12:26:33;4.43;;;2.03;;
52974;SDS011;38839;45.186;5.720;2022-09-01T12:28:58;2.58;;;1.95;;
52974;SDS011;38839;45.186;5.720;2022-09-01T12:31:24;1.75;;;1.50;;
52974;SDS011;38839;45.186;5.720;2022-09-01T12:33:52;3.03;;;1.83;;
52974;SDS011;38839;45.186;5.720;2022-09-01T12:36:29;3.03;;;2.13;;
52974;SDS011;38839;45.186;5.720;2022-09-01T12:41:45;2.45;;;1.65;;
52974;SDS011;38839;45.186;5.720;2022-09-01T12:44:25;3.38;;;1.50;;
52974;SDS011;38839;45.186;5.720;2022-09-01T12:47:00;2.33;;;1.60;;
52974;SDS011;38839;45.186;5.720;2022-09-01T12:49:40;1.65;;;1.55;;
52974;SDS011;38839;45.186;5.720;2022-09-01T12:52:26;2.70;;;1.80;;
52974;SDS011;38839;45.186;5.720;2022-09-01T12:57:34;5.00;;;1.77;;
52974;SDS011;38839;45.186;5.720;2022-09-01T13:02:37;2.25;;;1.60;;
52974;SDS011;38839;45.186;5.720;2022-09-01T13:07:56;1.60;;;1.50;;
52974;SDS011;38839;45.186;5.720;2022-09-01T13:10:24;2.00;;;1.60;;
52974;SDS011;38839;45.186;5.720;2022-09-01T13:12:53;1.75;;;1.48;;
52974;SDS011;38839;45.186;5.720;2022-09-01T13:15:19;3.38;;;1.50;;
52974;SDS011;38839;45.186;5.720;2022-09-01T13:17:45;2.30;;;1.75;;
52974;SDS011;38839;45.186;5.720;2022-09-01T13:20:12;3.67;;;1.63;;
52974;SDS011;38839;45.186;5.720;2022-09-01T13:22:37;1.40;;;1.30;;
52974;SDS011;38839;45.186;5.720;2022-09-01T13:25:05;5.18;;;2.03;;
52974;SDS011;38839;45.186;5.720;2022-09-01T13:27:31;1.98;;;1.73;;
52974;SDS011;38839;45.186;5.720;2022-09-01T13:29:56;1.65;;;1.55;;
52974;SDS011;38839;45.186;5.720;2022-09-01T13:32:22;1.83;;;1.73;;
52974;SDS011;38839;45.186;5.720;2022-09-01T13:34:48;1.25;;;1.15;;
52974;SDS011;38839;45.186;5.720;2022-09-01T13:37:14;1.92;;;1.50;;
52974;SDS011;38839;45.186;5.720;2022-09-01T13:39:40;1.80;;;1.40;;
52974;SDS011;38839;45.186;5.720;2022-09-01T13:42:05;1.58;;;1.48;;
52974;SDS011;38839;45.186;5.720;2022-09-01T13:44:31;2.22;;;1.42;;
52974;SDS011;38839;45.186;5.720;2022-09-01T13:46:56;2.03;;;1.40;;
52974;SDS011;38839;45.186;5.720;2022-09-01T13:49:22;2.08;;;1.40;;
52974;SDS011;38839;45.186;5.720;2022-09-01T13:51:51;3.20;;;1.50;;
52974;SDS011;38839;45.186;5.720;2022-09-01T13:54:16;2.33;;;1.20;;
52974;SDS011;38839;45.186;5.720;2022-09-01T13:56:42;1.95;;;1.70;;
52974;SDS011;38839;45.186;5.720;2022-09-01T13:59:08;2.13;;;1.50;;
52974;SDS011;38839;45.186;5.720;2022-09-01T14:01:33;1.63;;;1.52;;
52974;SDS011;38839;45.186;5.720;2022-09-01T14:03:59;3.08;;;1.23;;
52974;SDS011;38839;45.186;5.720;2022-09-01T14:06:24;1.73;;;1.50;;
52974;SDS011;38839;45.186;5.720;2022-09-01T14:08:50;2.20;;;1.40;;
52974;SDS011;38839;45.186;5.720;2022-09-01T14:11:16;1.60;;;1.50;;
52974;SDS011;38839;45.186;5.720;2022-09-01T14:13:43;2.55;;;1.30;;
52974;SDS011;38839;45.186;5.720;2022-09-01T14:16:12;1.63;;;1.45;;
52974;SDS011;38839;45.186;5.720;2022-09-01T14:18:39;1.85;;;1.30;;
52974;SDS011;38839;45.186;5.720;2022-09-01T14:21:04;2.38;;;1.60;;
52974;SDS011;38839;45.186;5.720;2022-09-01T14:23:35;1.20;;;1.10;;
52974;SDS011;38839;45.186;5.720;2022-09-01T14:26:00;2.15;;;1.38;;
52974;SDS011;38839;45.186;5.720;2022-09-01T14:28:26;1.42;;;1.30;;
52974;SDS011;38839;45.186;5.720;2022-09-01T14:33:37;1.92;;;1.20;;
52974;SDS011;38839;45.186;5.720;2022-09-01T14:36:04;2.13;;;1.20;;
52974;SDS011;38839;45.186;5.720;2022-09-01T14:38:31;1.35;;;1.20;;
52974;SDS011;38839;45.186;5.720;2022-09-01T14:40:57;1.30;;;1.20;;
52974;SDS011;38839;45.186;5.720;2022-09-01T14:43:22;2.55;;;1.30;;
52974;SDS011;38839;45.186;5.720;2022-09-01T14:45:49;1.48;;;1.05;;
52974;SDS011;38839;45.186;5.720;2022-09-01T14:48:30;1.85;;;1.13;;
52974;SDS011;38839;45.186;5.720;2022-09-01T14:50:55;1.40;;;1.30;;
52974;SDS011;38839;45.186;5.720;2022-09-01T14:53:20;1.30;;;1.25;;
52974;SDS011;38839;45.186;5.720;2022-09-01T14:55:46;1.65;;;1.38;;
52974;SDS011;38839;45.186;5.720;2022-09-01T14:58:12;3.35;;;1.30;;
52974;SDS011;38839;45.186;5.720;2022-09-01T15:00:37;1.60;;;1.20;;
52974;SDS011;38839;45.186;5.720;2022-09-01T15:03:03;1.20;;;1.10;;
52974;SDS011;38839;45.186;5.720;2022-09-01T15:05:29;2.10;;;1.30;;
52974;SDS011;38839;45.186;5.720;2022-09-01T15:07:54;1.13;;;1.02;;
52974;SDS011;38839;45.186;5.720;2022-09-01T15:10:21;2.45;;;1.30;;
52974;SDS011;38839;45.186;5.720;2022-09-01T15:12:49;1.73;;;1.20;;
52974;SDS011;38839;45.186;5.720;2022-09-01T15:15:15;1.35;;;1.05;;
52974;SDS011;38839;45.186;5.720;2022-09-01T15:17:41;1.27;;;1.17;;
52974;SDS011;38839;45.186;5.720;2022-09-01T15:20:09;1.25;;;1.17;;
52974;SDS011;38839;45.186;5.720;2022-09-01T15:22:53;2.50;;;1.10;;
52974;SDS011;38839;45.186;5.720;2022-09-01T15:25:19;4.82;;;1.30;;
52974;SDS011;38839;45.186;5.720;2022-09-01T15:27:45;1.13;;;1.00;;
52974;SDS011;38839;45.186;5.720;2022-09-01T15:30:11;3.20;;;1.23;;
52974;SDS011;38839;45.186;5.720;2022-09-01T15:32:42;1.67;;;1.10;;
52974;SDS011;38839;45.186;5.720;2022-09-01T15:35:09;1.33;;;1.23;;
52974;SDS011;38839;45.186;5.720;2022-09-01T15:37:35;2.22;;;1.10;;
52974;SDS011;38839;45.186;5.720;2022-09-01T15:40:01;1.48;;;1.30;;
52974;SDS011;38839;45.186;5.720;2022-09-01T15:42:28;1.80;;;1.20;;
52974;SDS011;38839;45.186;5.720;2022-09-01T15:44:53;1.20;;;1.10;;
52974;SDS011;38839;45.186;5.720;2022-09-01T15:53:13;1.20;;;1.10;;
52974;SDS011;38839;45.186;5.720;2022-09-01T15:55:39;1.25;;;1.15;;
52974;SDS011;38839;45.186;5.720;2022-09-01T15:58:11;1.40;;;1.30;;
52974;SDS011;38839;45.186;5.720;2022-09-01T16:00:39;2.67;;;1.13;;
52974;SDS011;38839;45.186;5.720;2022-09-01T16:03:05;1.48;;;1.38;;
52974;SDS011;38839;45.186;5.720;2022-09-01T16:05:31;1.63;;;1.10;;
52974;SDS011;38839;45.186;5.720;2022-09-01T16:07:59;1.50;;;1.20;;
52974;SDS011;38839;45.186;5.720;2022-09-01T16:10:26;1.80;;;1.27;;
52974;SDS011;38839;45.186;5.720;2022-09-01T16:12:53;2.33;;;1.20;;
52974;SDS011;38839;45.186;5.720;2022-09-01T16:15:20;1.38;;;1.27;;
52974;SDS011;38839;45.186;5.720;2022-09-01T16:20:24;2.25;;;1.38;;
52974;SDS011;38839;45.186;5.720;2022-09-01T16:22:54;2.70;;;1.30;;
52974;SDS011;38839;45.186;5.720;2022-09-01T16:25:36;1.48;;;1.38;;
52974;SDS011;38839;45.186;5.720;2022-09-01T16:28:07;2.63;;;1.38;;
52974;SDS011;38839;45.186;5.720;2022-09-01T16:30:40;1.30;;;1.17;;
52974;SDS011;38839;45.186;5.720;2022-09-01T16:33:09;1.20;;;1.15;;
52974;SDS011;38839;45.186;5.720;2022-09-01T16:35:47;1.40;;;1.30;;
52974;SDS011;38839;45.186;5.720;2022-09-01T16:49:49;2.58;;;1.50;;
52974;SDS011;38839;45.186;5.720;2022-09-01T16:52:20;1.33;;;1.20;;
52974;SDS011;38839;45.186;5.720;2022-09-01T16:57:50;3.22;;;1.23;;
52974;SDS011;38839;45.186;5.720;2022-09-01T17:00:39;4.13;;;1.50;;